Etusivu
METAR-TAF:

METAR-TAF

Lentoasemat :

Gran Canarian lentoasema

Gran Canaria, Espanja

Leveyspiiri: 27-56N, Pituuspiiri: 015-23W, korkeus merenpinnasta: 23 m

Tämänhetkinen sää

Tämä raportti tehtiin 26 minuuttia sitten, kello 09.30 UTC
Tuuli 25 kn pohjoisesta
Lämpötila 19°C
Kosteus 60%
Ilmanpaine 1016 hPa
Näkyvyys 10 km tai enemmän
Hajanaisia pilviä 3000 ft:n korkeudessa

METAR: GCLP 220930Z 01025KT 9999 SCT030 19/11 Q1016 NOSIG

Aika: 09:56 (09:56 UTC)

Sääennuste

Tämä raportti tehtiin 1 tunti ja 56 minuuttia sitten, kello 08.00 UTC
Ennuste voimassa 22. päivästä klo 09 UTC - 23. päivään klo 09 UTC
Tuuli 22 kn pohjoisesta
Näkyvyys 10 km tai enemmän
Muutamia pilviä 2500 ft:n korkeudessa
Todennäköisyys 40% :
Ajoittain
22. päivästä klo 11 UTC - 22. päivään klo 23 UTC
Tuuli 22 kn pohjoisesta puuskistuen 34 kn:hen

TAF: GCLP 220800Z 2209/2309 01022KT 9999 FEW025 TX22/2215Z TN16/2306Z PROB40 TEMPO 2211/2223 01022G34KT

Säähavainnot ja -ennusteet yli 4000 lentoasemalta (METAR- ja TAF-raportit).

Käytössä olevat sääasemat on merkitty karttaan keltaisilla ja punaisilla pisteillä.

Aseta hiiri pisteen päälle nähdäksesi sääaseman nimen.

Klikkaa sitten nähdäksesi säähavainnot ja -ennusteet.

Kartan vaihtaminen: klikkaa mustalla rastilla varustettuja vihreitä pisteitä, niin voit zoomata sisään; viivalla varustettua vihreää pistettä, niin voit zoomata ulos tai vihreitä nuolia, niin pääset viereisille kartoille.


METAR-TAF: